sensor_id;sensor_type;location;lat;lon;timestamp;pressure;altitude;pressure_sealevel;temperature;humidity
54592;BME280;40488;48.558;18.150;2023-05-20T00:02:10;100089.06;;;13.48;86.90
54592;BME280;40488;48.558;18.150;2023-05-20T00:04:41;100092.44;;;13.49;86.89
54592;BME280;40488;48.558;18.150;2023-05-20T00:07:10;100095.03;;;13.50;86.92
54592;BME280;40488;48.558;18.150;2023-05-20T00:09:39;100083.00;;;13.54;86.83
54592;BME280;40488;48.558;18.150;2023-05-20T00:12:07;100091.53;;;13.56;86.79
54592;BME280;40488;48.558;18.150;2023-05-20T00:14:37;100084.72;;;13.56;86.85
54592;BME280;40488;48.558;18.150;2023-05-20T00:17:06;100081.31;;;13.57;86.62
54592;BME280;40488;48.558;18.150;2023-05-20T00:19:34;100088.13;;;13.58;86.68
54592;BME280;40488;48.558;18.150;2023-05-20T00:22:05;100091.53;;;13.59;86.90
54592;BME280;40488;48.558;18.150;2023-05-20T00:24:34;100086.41;;;13.56;86.88
54592;BME280;40488;48.558;18.150;2023-05-20T00:27:03;100071.09;;;13.50;86.98
54592;BME280;40488;48.558;18.150;2023-05-20T00:29:32;100094.09;;;13.59;86.58
54592;BME280;40488;48.558;18.150;2023-05-20T00:32:01;100085.56;;;13.57;87.02
54592;BME280;40488;48.558;18.150;2023-05-20T00:34:30;100083.03;;;13.55;86.81
54592;BME280;40488;48.558;18.150;2023-05-20T00:36:59;100086.41;;;13.59;86.84
54592;BME280;40488;48.558;18.150;2023-05-20T00:39:30;100092.41;;;13.58;86.92
54592;BME280;40488;48.558;18.150;2023-05-20T00:41:58;100094.09;;;13.59;86.73
54592;BME280;40488;48.558;18.150;2023-05-20T00:44:29;100080.44;;;13.57;87.10
54592;BME280;40488;48.558;18.150;2023-05-20T00:46:58;100096.66;;;13.62;86.82
54592;BME280;40488;48.558;18.150;2023-05-20T00:49:29;100083.91;;;13.53;87.07
54592;BME280;40488;48.558;18.150;2023-05-20T00:51:58;100095.81;;;13.57;86.71
54592;BME280;40488;48.558;18.150;2023-05-20T00:54:27;100090.69;;;13.57;86.70
54592;BME280;40488;48.558;18.150;2023-05-20T00:56:57;100096.69;;;13.56;86.97
54592;BME280;40488;48.558;18.150;2023-05-20T00:59:29;100060.91;;;13.34;87.02
54592;BME280;40488;48.558;18.150;2023-05-20T01:01:59;100089.03;;;13.50;86.75
54592;BME280;40488;48.558;18.150;2023-05-20T01:04:29;100094.16;;;13.50;86.89
54592;BME280;40488;48.558;18.150;2023-05-20T01:07:00;100085.63;;;13.48;87.05
54592;BME280;40488;48.558;18.150;2023-05-20T01:09:31;100084.78;;;13.47;87.30
54592;BME280;40488;48.558;18.150;2023-05-20T01:12:07;100080.50;;;13.48;87.15
54592;BME280;40488;48.558;18.150;2023-05-20T01:14:46;100089.09;;;13.43;87.31
54592;BME280;40488;48.558;18.150;2023-05-20T01:17:18;100089.03;;;13.47;87.22
54592;BME280;40488;48.558;18.150;2023-05-20T01:19:49;100084.75;;;13.49;87.38
54592;BME280;40488;48.558;18.150;2023-05-20T01:22:24;100083.03;;;13.52;87.19
54592;BME280;40488;48.558;18.150;2023-05-20T01:24:55;100077.06;;;13.53;87.29
54592;BME280;40488;48.558;18.150;2023-05-20T01:27:26;100084.75;;;13.53;87.37
54592;BME280;40488;48.558;18.150;2023-05-20T01:29:56;100089.84;;;13.56;87.24
54592;BME280;40488;48.558;18.150;2023-05-20T01:32:30;100082.16;;;13.58;87.52
54592;BME280;40488;48.558;18.150;2023-05-20T01:35:00;100077.06;;;13.52;87.24
54592;BME280;40488;48.558;18.150;2023-05-20T01:37:34;100084.69;;;13.61;87.17
54592;BME280;40488;48.558;18.150;2023-05-20T01:40:07;100083.81;;;13.65;87.25
54592;BME280;40488;48.558;18.150;2023-05-20T01:42:36;100084.63;;;13.68;86.95
54592;BME280;40488;48.558;18.150;2023-05-20T01:45:07;100085.47;;;13.72;87.18
54592;BME280;40488;48.558;18.150;2023-05-20T01:47:37;100085.41;;;13.78;86.75
54592;BME280;40488;48.558;18.150;2023-05-20T01:50:07;100079.44;;;13.79;86.82
54592;BME280;40488;48.558;18.150;2023-05-20T01:52:37;100082.00;;;13.82;86.41
54592;BME280;40488;48.558;18.150;2023-05-20T01:55:07;100073.41;;;13.83;86.57
54592;BME280;40488;48.558;18.150;2023-05-20T01:57:36;100080.25;;;13.84;86.63
54592;BME280;40488;48.558;18.150;2023-05-20T02:00:06;100090.47;;;13.87;86.58
54592;BME280;40488;48.558;18.150;2023-05-20T02:02:44;100090.53;;;13.84;86.99
54592;BME280;40488;48.558;18.150;2023-05-20T02:05:13;100096.50;;;13.83;86.68
54592;BME280;40488;48.558;18.150;2023-05-20T02:07:43;100087.97;;;13.81;86.78
54592;BME280;40488;48.558;18.150;2023-05-20T02:10:12;100080.31;;;13.76;86.84
54592;BME280;40488;48.558;18.150;2023-05-20T02:12:41;100087.13;;;13.82;86.52
54592;BME280;40488;48.558;18.150;2023-05-20T02:15:10;100083.69;;;13.83;86.50
54592;BME280;40488;48.558;18.150;2023-05-20T02:17:40;100085.38;;;13.84;86.89
54592;BME280;40488;48.558;18.150;2023-05-20T02:20:13;100079.41;;;13.83;86.81
54592;BME280;40488;48.558;18.150;2023-05-20T02:22:44;100080.25;;;13.84;86.50
54592;BME280;40488;48.558;18.150;2023-05-20T02:25:13;100074.28;;;13.82;86.71
54592;BME280;40488;48.558;18.150;2023-05-20T02:27:43;100093.13;;;13.79;86.75
54592;BME280;40488;48.558;18.150;2023-05-20T02:30:13;100089.69;;;13.80;86.83
54592;BME280;40488;48.558;18.150;2023-05-20T02:32:42;100082.00;;;13.79;86.48
54592;BME280;40488;48.558;18.150;2023-05-20T02:35:11;100082.00;;;13.79;86.74
54592;BME280;40488;48.558;18.150;2023-05-20T02:37:40;100086.28;;;13.78;86.84
54592;BME280;40488;48.558;18.150;2023-05-20T02:40:12;100071.75;;;13.79;86.42
54592;BME280;40488;48.558;18.150;2023-05-20T02:42:41;100070.88;;;13.78;86.59
54592;BME280;40488;48.558;18.150;2023-05-20T02:45:10;100075.16;;;13.78;86.52
54592;BME280;40488;48.558;18.150;2023-05-20T02:47:39;100070.03;;;13.78;86.66
54592;BME280;40488;48.558;18.150;2023-05-20T02:50:09;100072.63;;;13.76;86.43
54592;BME280;40488;48.558;18.150;2023-05-20T02:52:38;100075.19;;;13.75;86.57
54592;BME280;40488;48.558;18.150;2023-05-20T02:55:09;100064.09;;;13.71;86.51
54592;BME280;40488;48.558;18.150;2023-05-20T02:57:39;100077.78;;;13.70;86.29
54592;BME280;40488;48.558;18.150;2023-05-20T03:00:10;100075.22;;;13.69;86.76
54592;BME280;40488;48.558;18.150;2023-05-20T03:02:39;100075.28;;;13.63;86.97
54592;BME280;40488;48.558;18.150;2023-05-20T03:05:09;100087.22;;;13.67;86.82
54592;BME280;40488;48.558;18.150;2023-05-20T03:07:38;100083.81;;;13.65;86.55
54592;BME280;40488;48.558;18.150;2023-05-20T03:10:08;100092.38;;;13.64;86.76
54592;BME280;40488;48.558;18.150;2023-05-20T03:12:40;100089.84;;;13.59;86.32
54592;BME280;40488;48.558;18.150;2023-05-20T03:15:10;100081.31;;;13.57;86.83
54592;BME280;40488;48.558;18.150;2023-05-20T03:17:39;100082.97;;;13.58;86.81
54592;BME280;40488;48.558;18.150;2023-05-20T03:20:08;100082.16;;;13.58;86.43
54592;BME280;40488;48.558;18.150;2023-05-20T03:22:40;100083.84;;;13.59;86.50
54592;BME280;40488;48.558;18.150;2023-05-20T03:25:09;100080.44;;;13.57;86.68
54592;BME280;40488;48.558;18.150;2023-05-20T03:27:39;100083.84;;;13.56;86.74
54592;BME280;40488;48.558;18.150;2023-05-20T03:30:10;100084.72;;;13.55;86.41
54592;BME280;40488;48.558;18.150;2023-05-20T03:32:39;100076.22;;;13.47;86.67
54592;BME280;40488;48.558;18.150;2023-05-20T03:35:08;100087.28;;;13.55;86.44
54592;BME280;40488;48.558;18.150;2023-05-20T03:37:37;100094.13;;;13.56;86.34
54592;BME280;40488;48.558;18.150;2023-05-20T03:40:07;100097.56;;;13.55;86.50
54592;BME280;40488;48.558;18.150;2023-05-20T03:42:39;100093.28;;;13.54;86.69
54592;BME280;40488;48.558;18.150;2023-05-20T03:45:09;100081.31;;;13.54;86.73
54592;BME280;40488;48.558;18.150;2023-05-20T03:47:46;100089.00;;;13.54;86.57
54592;BME280;40488;48.558;18.150;2023-05-20T03:50:17;100086.47;;;13.50;86.47
54592;BME280;40488;48.558;18.150;2023-05-20T03:52:46;100085.63;;;13.51;86.49
54592;BME280;40488;48.558;18.150;2023-05-20T03:55:17;100092.44;;;13.52;86.40
54592;BME280;40488;48.558;18.150;2023-05-20T03:57:48;100088.19;;;13.51;86.39
54592;BME280;40488;48.558;18.150;2023-05-20T04:00:18;100089.00;;;13.51;86.81
54592;BME280;40488;48.558;18.150;2023-05-20T04:02:48;100073.72;;;13.37;86.67
54592;BME280;40488;48.558;18.150;2023-05-20T04:05:18;100089.03;;;13.47;86.71
54592;BME280;40488;48.558;18.150;2023-05-20T04:07:47;100089.09;;;13.43;86.83
54592;BME280;40488;48.558;18.150;2023-05-20T04:10:21;100093.34;;;13.44;87.12
54592;BME280;40488;48.558;18.150;2023-05-20T04:12:52;100101.03;;;13.48;86.83
54592;BME280;40488;48.558;18.150;2023-05-20T04:15:21;100089.88;;;13.49;86.81
54592;BME280;40488;48.558;18.150;2023-05-20T04:17:54;100093.31;;;13.49;87.00
54592;BME280;40488;48.558;18.150;2023-05-20T04:20:24;100091.59;;;13.47;86.86
54592;BME280;40488;48.558;18.150;2023-05-20T04:22:56;100099.28;;;13.50;87.14
54592;BME280;40488;48.558;18.150;2023-05-20T04:25:25;100095.88;;;13.51;87.29
54592;BME280;40488;48.558;18.150;2023-05-20T04:27:56;100100.13;;;13.55;87.21
54592;BME280;40488;48.558;18.150;2023-05-20T04:30:26;100103.47;;;13.64;87.40
54592;BME280;40488;48.558;18.150;2023-05-20T04:32:55;100102.53;;;13.76;87.29
54592;BME280;40488;48.558;18.150;2023-05-20T04:35:24;100095.59;;;13.90;86.89
54592;BME280;40488;48.558;18.150;2023-05-20T04:37:57;100095.50;;;14.02;86.93
54592;BME280;40488;48.558;18.150;2023-05-20T04:40:26;100092.81;;;14.17;86.87
54592;BME280;40488;48.558;18.150;2023-05-20T04:42:58;100095.22;;;14.35;86.68
54592;BME280;40488;48.558;18.150;2023-05-20T04:45:29;100096.81;;;14.51;86.75
54592;BME280;40488;48.558;18.150;2023-05-20T04:47:58;100091.56;;;14.63;86.57
54592;BME280;40488;48.558;18.150;2023-05-20T04:50:27;100098.22;;;14.80;85.64
54592;BME280;40488;48.558;18.150;2023-05-20T04:52:56;100097.25;;;14.88;85.15
54592;BME280;40488;48.558;18.150;2023-05-20T04:55:27;100101.34;;;15.03;85.07
54592;BME280;40488;48.558;18.150;2023-05-20T04:57:59;100099.47;;;15.17;84.43
54592;BME280;40488;48.558;18.150;2023-05-20T05:00:28;100101.84;;;15.32;83.89
54592;BME280;40488;48.558;18.150;2023-05-20T05:02:57;100104.25;;;15.44;82.80
54592;BME280;40488;48.558;18.150;2023-05-20T05:05:27;100104.13;;;15.56;82.69
54592;BME280;40488;48.558;18.150;2023-05-20T05:07:56;100103.94;;;15.68;82.25
54592;BME280;40488;48.558;18.150;2023-05-20T05:10:25;100103.72;;;15.82;81.78
54592;BME280;40488;48.558;18.150;2023-05-20T05:12:54;100107.84;;;15.95;81.33
54592;BME280;40488;48.558;18.150;2023-05-20T05:15:24;100105.94;;;16.07;81.02
54592;BME280;40488;48.558;18.150;2023-05-20T05:17:54;100108.22;;;16.23;80.62
54592;BME280;40488;48.558;18.150;2023-05-20T05:20:23;100103.72;;;16.35;80.00
54592;BME280;40488;48.558;18.150;2023-05-20T05:22:51;100095.88;;;16.43;79.35
54592;BME280;40488;48.558;18.150;2023-05-20T05:25:20;100091.38;;;16.54;78.95
54592;BME280;40488;48.558;18.150;2023-05-20T05:27:49;100084.47;;;16.56;78.34
54592;BME280;40488;48.558;18.150;2023-05-20T05:30:19;100091.88;;;16.72;77.75
54592;BME280;40488;48.558;18.150;2023-05-20T05:32:51;100089.97;;;16.82;77.22
54592;BME280;40488;48.558;18.150;2023-05-20T05:35:21;100086.34;;;16.92;76.78
54592;BME280;40488;48.558;18.150;2023-05-20T05:37:50;100091.31;;;17.03;76.19
54592;BME280;40488;48.558;18.150;2023-05-20T06:56:11;100071.53;;;19.41;68.10
54592;BME280;40488;48.558;18.150;2023-05-20T06:58:40;100079.59;;;19.58;68.05
54592;BME280;40488;48.558;18.150;2023-05-20T07:01:09;100061.78;;;19.75;67.83
54592;BME280;40488;48.558;18.150;2023-05-20T07:03:39;100058.84;;;19.86;67.27
54592;BME280;40488;48.558;18.150;2023-05-20T07:06:10;100056.81;;;19.95;67.27
54592;BME280;40488;48.558;18.150;2023-05-20T07:08:39;100067.66;;;20.06;67.11
54592;BME280;40488;48.558;18.150;2023-05-20T07:11:09;100061.97;;;20.22;66.69
54592;BME280;40488;48.558;18.150;2023-05-20T07:13:39;100061.38;;;20.40;66.38
54592;BME280;40488;48.558;18.150;2023-05-20T07:16:08;100057.56;;;20.50;66.36
54592;BME280;40488;48.558;18.150;2023-05-20T07:18:41;100053.84;;;20.57;65.75
54592;BME280;40488;48.558;18.150;2023-05-20T07:21:10;100050.13;;;20.64;65.23
54592;BME280;40488;48.558;18.150;2023-05-20T07:24:06;100053.19;;;20.75;65.07
54592;BME280;40488;48.558;18.150;2023-05-20T07:26:37;100051.06;;;20.86;64.92
54592;BME280;40488;48.558;18.150;2023-05-20T07:29:12;100051.28;;;21.03;64.78
54592;BME280;40488;48.558;18.150;2023-05-20T07:31:41;100045.94;;;21.08;64.00
54592;BME280;40488;48.558;18.150;2023-05-20T07:34:10;100044.91;;;21.12;64.05
54592;BME280;40488;48.558;18.150;2023-05-20T07:36:40;100039.69;;;21.13;63.76
54592;BME280;40488;48.558;18.150;2023-05-20T07:39:10;100046.38;;;21.19;63.98
54592;BME280;40488;48.558;18.150;2023-05-20T07:41:42;100038.19;;;21.29;63.90
54592;BME280;40488;48.558;18.150;2023-05-20T07:44:13;100046.00;;;21.51;63.69
54592;BME280;40488;48.558;18.150;2023-05-20T07:46:47;100036.56;;;21.70;64.53
54592;BME280;40488;48.558;18.150;2023-05-20T07:49:19;100021.06;;;21.89;64.15
54592;BME280;40488;48.558;18.150;2023-05-20T07:51:48;100015.94;;;22.08;62.77
54592;BME280;40488;48.558;18.150;2023-05-20T07:54:17;100028.25;;;22.24;61.03
54592;BME280;40488;48.558;18.150;2023-05-20T07:56:49;100015.63;;;22.35;60.01
54592;BME280;40488;48.558;18.150;2023-05-20T07:59:20;100021.97;;;22.48;58.41
54592;BME280;40488;48.558;18.150;2023-05-20T08:01:49;100017.97;;;22.61;57.48
54592;BME280;40488;48.558;18.150;2023-05-20T08:04:20;100020.28;;;22.67;57.27
54592;BME280;40488;48.558;18.150;2023-05-20T08:06:51;100015.03;;;22.88;58.08
54592;BME280;40488;48.558;18.150;2023-05-20T08:09:30;100009.00;;;23.06;57.68
54592;BME280;40488;48.558;18.150;2023-05-20T08:11:59;100007.50;;;23.19;57.42
54592;BME280;40488;48.558;18.150;2023-05-20T08:14:30;99999.53;;;23.22;57.13
54592;BME280;40488;48.558;18.150;2023-05-20T08:16:59;100006.41;;;23.23;56.72
54592;BME280;40488;48.558;18.150;2023-05-20T08:19:27;99969.84;;;23.07;56.83
54592;BME280;40488;48.558;18.150;2023-05-20T08:21:57;100002.06;;;23.42;56.86
54592;BME280;40488;48.558;18.150;2023-05-20T08:24:26;99997.31;;;23.50;56.26
54592;BME280;40488;48.558;18.150;2023-05-20T08:26:55;99991.59;;;23.61;56.34
54592;BME280;40488;48.558;18.150;2023-05-20T08:29:26;99998.97;;;23.70;55.71
54592;BME280;40488;48.558;18.150;2023-05-20T08:31:58;99991.75;;;23.75;55.80
54592;BME280;40488;48.558;18.150;2023-05-20T08:34:28;99988.59;;;23.68;54.09
54592;BME280;40488;48.558;18.150;2023-05-20T08:36:57;99987.41;;;23.75;53.14
54592;BME280;40488;48.558;18.150;2023-05-20T08:39:25;99987.22;;;23.78;53.08
54592;BME280;40488;48.558;18.150;2023-05-20T08:41:57;99983.09;;;23.91;52.58
54592;BME280;40488;48.558;18.150;2023-05-20T08:44:27;99987.31;;;23.94;53.34
54592;BME280;40488;48.558;18.150;2023-05-20T08:46:59;99991.56;;;24.14;53.26
54592;BME280;40488;48.558;18.150;2023-05-20T08:49:31;99984.22;;;24.37;53.36
54592;BME280;40488;48.558;18.150;2023-05-20T08:52:00;99976.16;;;24.42;52.49
54592;BME280;40488;48.558;18.150;2023-05-20T08:54:41;99980.56;;;24.57;52.91
54592;BME280;40488;48.558;18.150;2023-05-20T08:57:11;99987.16;;;24.64;52.09
54592;BME280;40488;48.558;18.150;2023-05-20T08:59:42;99978.97;;;24.70;51.97
54592;BME280;40488;48.558;18.150;2023-05-20T09:02:13;99974.88;;;24.82;52.08
54592;BME280;40488;48.558;18.150;2023-05-20T09:04:42;99976.78;;;24.95;51.76
54592;BME280;40488;48.558;18.150;2023-05-20T09:07:11;99978.19;;;24.85;51.23
54592;BME280;40488;48.558;18.150;2023-05-20T09:09:40;99978.59;;;24.93;50.90
54592;BME280;40488;48.558;18.150;2023-05-20T09:12:09;99984.41;;;24.98;51.67
54592;BME280;40488;48.558;18.150;2023-05-20T09:14:37;99975.47;;;25.18;52.00
54592;BME280;40488;48.558;18.150;2023-05-20T09:17:06;99973.94;;;25.29;52.36
54592;BME280;40488;48.558;18.150;2023-05-20T09:19:36;99981.09;;;25.42;52.33
54592;BME280;40488;48.558;18.150;2023-05-20T09:22:06;99972.19;;;25.46;51.36
54592;BME280;40488;48.558;18.150;2023-05-20T09:24:35;99974.47;;;25.36;51.53
54592;BME280;40488;48.558;18.150;2023-05-20T09:27:04;99969.09;;;25.69;53.38
54592;BME280;40488;48.558;18.150;2023-05-20T09:29:32;99971.75;;;25.83;53.93
54592;BME280;40488;48.558;18.150;2023-05-20T09:32:02;99975.25;;;25.98;53.83
54592;BME280;40488;48.558;18.150;2023-05-20T09:34:32;99975.34;;;25.96;53.13
54592;BME280;40488;48.558;18.150;2023-05-20T09:37:02;99967.38;;;25.98;52.03
54592;BME280;40488;48.558;18.150;2023-05-20T09:39:52;99967.28;;;25.99;51.87
54592;BME280;40488;48.558;18.150;2023-05-20T09:42:26;99964.47;;;25.88;52.14
54592;BME280;40488;48.558;18.150;2023-05-20T09:44:57;99969.41;;;25.78;52.14
54592;BME280;40488;48.558;18.150;2023-05-20T09:47:26;99961.16;;;25.70;52.02
54592;BME280;40488;48.558;18.150;2023-05-20T09:49:56;99956.22;;;25.80;52.71
54592;BME280;40488;48.558;18.150;2023-05-20T09:52:27;99957.19;;;25.79;51.75
54592;BME280;40488;48.558;18.150;2023-05-20T09:54:56;99949.69;;;25.87;51.95
54592;BME280;40488;48.558;18.150;2023-05-20T09:57:27;99956.81;;;25.99;52.93
54592;BME280;40488;48.558;18.150;2023-05-20T09:59:58;99946.97;;;26.18;52.34
54592;BME280;40488;48.558;18.150;2023-05-20T10:02:27;99945.19;;;26.33;51.25
54592;BME280;40488;48.558;18.150;2023-05-20T10:04:58;99943.22;;;26.50;50.99
54592;BME280;40488;48.558;18.150;2023-05-20T10:10:39;99912.38;;;26.13;49.17
54592;BME280;40488;48.558;18.150;2023-05-20T10:16:21;99937.28;;;26.34;49.89
54592;BME280;40488;48.558;18.150;2023-05-20T10:19:03;99938.34;;;26.44;51.03
54592;BME280;40488;48.558;18.150;2023-05-20T10:21:34;99930.88;;;26.52;50.39
54592;BME280;40488;48.558;18.150;2023-05-20T10:24:06;99932.94;;;26.47;48.39
54592;BME280;40488;48.558;18.150;2023-05-20T10:26:38;99932.09;;;26.47;47.37
54592;BME280;40488;48.558;18.150;2023-05-20T10:29:14;99930.50;;;26.44;46.89
54592;BME280;40488;48.558;18.150;2023-05-20T10:31:43;99925.47;;;26.55;47.30
54592;BME280;40488;48.558;18.150;2023-05-20T10:34:15;99921.41;;;26.64;47.56
54592;BME280;40488;48.558;18.150;2023-05-20T10:36:45;99921.53;;;26.63;47.43
54592;BME280;40488;48.558;18.150;2023-05-20T10:39:15;99919.09;;;26.45;46.04
54592;BME280;40488;48.558;18.150;2023-05-20T10:41:46;99912.06;;;26.60;46.57
54592;BME280;40488;48.558;18.150;2023-05-20T10:44:15;99908.59;;;26.74;46.38
54592;BME280;40488;48.558;18.150;2023-05-20T10:46:44;99903.25;;;26.61;45.20
54592;BME280;40488;48.558;18.150;2023-05-20T10:49:33;99903.34;;;26.74;45.58
54592;BME280;40488;48.558;18.150;2023-05-20T10:52:02;99895.41;;;27.02;45.73
54592;BME280;40488;48.558;18.150;2023-05-20T10:54:34;99894.75;;;27.12;46.74
54592;BME280;40488;48.558;18.150;2023-05-20T10:57:07;99895.81;;;26.96;45.44
54592;BME280;40488;48.558;18.150;2023-05-20T10:59:36;99896.03;;;26.93;44.90
54592;BME280;40488;48.558;18.150;2023-05-20T11:02:07;99896.38;;;27.01;45.16
54592;BME280;40488;48.558;18.150;2023-05-20T11:04:39;99891.97;;;27.01;45.23
54592;BME280;40488;48.558;18.150;2023-05-20T11:07:10;99886.28;;;26.95;45.03
54592;BME280;40488;48.558;18.150;2023-05-20T11:09:48;99876.75;;;26.94;44.65
54592;BME280;40488;48.558;18.150;2023-05-20T11:12:19;99861.97;;;26.93;44.93
54592;BME280;40488;48.558;18.150;2023-05-20T11:14:49;99867.09;;;27.21;45.62
54592;BME280;40488;48.558;18.150;2023-05-20T11:17:19;99864.16;;;27.25;45.17
54592;BME280;40488;48.558;18.150;2023-05-20T11:19:48;99853.91;;;26.96;45.72
54592;BME280;40488;48.558;18.150;2023-05-20T11:22:18;99853.47;;;26.89;45.59
54592;BME280;40488;48.558;18.150;2023-05-20T11:24:47;99851.41;;;27.07;45.93
54592;BME280;40488;48.558;18.150;2023-05-20T11:27:15;99857.34;;;27.23;45.84
54592;BME280;40488;48.558;18.150;2023-05-20T11:29:48;99851.09;;;27.38;45.56
54592;BME280;40488;48.558;18.150;2023-05-20T11:32:19;99854.59;;;27.51;45.79
54592;BME280;40488;48.558;18.150;2023-05-20T11:34:50;99853.31;;;27.44;45.23
54592;BME280;40488;48.558;18.150;2023-05-20T11:37:20;99857.75;;;27.56;44.98
54592;BME280;40488;48.558;18.150;2023-05-20T11:40:03;99857.53;;;27.59;44.11
54592;BME280;40488;48.558;18.150;2023-05-20T11:42:34;99857.00;;;27.79;44.36
54592;BME280;40488;48.558;18.150;2023-05-20T11:45:06;99860.06;;;27.73;43.10
54592;BME280;40488;48.558;18.150;2023-05-20T11:47:41;99849.34;;;27.76;43.11
54592;BME280;40488;48.558;18.150;2023-05-20T11:50:10;99852.47;;;27.81;41.79
54592;BME280;40488;48.558;18.150;2023-05-20T11:52:44;99846.81;;;27.62;41.61
54592;BME280;40488;48.558;18.150;2023-05-20T11:55:13;99855.00;;;27.70;41.96
54592;BME280;40488;48.558;18.150;2023-05-20T11:57:42;99848.28;;;27.79;42.08
54592;BME280;40488;48.558;18.150;2023-05-20T12:00:13;99853.75;;;28.01;42.09
54592;BME280;40488;48.558;18.150;2023-05-20T12:02:42;99845.34;;;27.83;40.84
54592;BME280;40488;48.558;18.150;2023-05-20T12:05:11;99841.97;;;27.81;40.89
54592;BME280;40488;48.558;18.150;2023-05-20T12:07:40;99846.63;;;27.90;40.73
54592;BME280;40488;48.558;18.150;2023-05-20T12:10:10;99843.69;;;27.82;40.81
54592;BME280;40488;48.558;18.150;2023-05-20T12:12:40;99842.00;;;27.56;41.00
54592;BME280;40488;48.558;18.150;2023-05-20T12:15:10;99836.28;;;27.37;42.12
54592;BME280;40488;48.558;18.150;2023-05-20T12:17:48;99845.75;;;27.65;44.21
54592;BME280;40488;48.558;18.150;2023-05-20T12:20:20;99846.19;;;27.46;42.95
54592;BME280;40488;48.558;18.150;2023-05-20T12:22:49;99844.28;;;27.48;42.21
54592;BME280;40488;48.558;18.150;2023-05-20T12:25:19;99837.38;;;27.72;42.37
54592;BME280;40488;48.558;18.150;2023-05-20T12:27:48;99835.28;;;28.03;43.41
54592;BME280;40488;48.558;18.150;2023-05-20T12:30:19;99835.06;;;28.06;44.13
54592;BME280;40488;48.558;18.150;2023-05-20T12:32:50;99832.53;;;28.17;44.30
54592;BME280;40488;48.558;18.150;2023-05-20T12:35:36;99822.81;;;28.42;43.22
54592;BME280;40488;48.558;18.150;2023-05-20T12:38:06;99822.75;;;28.55;42.46
54592;BME280;40488;48.558;18.150;2023-05-20T12:40:35;99818.44;;;28.54;41.50
54592;BME280;40488;48.558;18.150;2023-05-20T12:43:05;99818.41;;;28.43;41.23
54592;BME280;40488;48.558;18.150;2023-05-20T12:45:34;99820.59;;;28.36;40.83
54592;BME280;40488;48.558;18.150;2023-05-20T12:48:04;99812.13;;;28.33;40.87
54592;BME280;40488;48.558;18.150;2023-05-20T12:50:34;99811.03;;;28.12;40.78
54592;BME280;40488;48.558;18.150;2023-05-20T12:53:03;99815.88;;;27.80;40.39
54592;BME280;40488;48.558;18.150;2023-05-20T12:55:32;99822.91;;;27.54;40.29
54592;BME280;40488;48.558;18.150;2023-05-20T12:58:01;99818.50;;;27.42;40.92
54592;BME280;40488;48.558;18.150;2023-05-20T13:00:30;99817.66;;;27.54;39.44
54592;BME280;40488;48.558;18.150;2023-05-20T13:02:59;99813.44;;;27.89;38.01
54592;BME280;40488;48.558;18.150;2023-05-20T13:05:29;99808.31;;;27.88;36.93
54592;BME280;40488;48.558;18.150;2023-05-20T13:07:58;99810.53;;;27.69;36.06
54592;BME280;40488;48.558;18.150;2023-05-20T13:10:27;99806.84;;;27.46;35.96
54592;BME280;40488;48.558;18.150;2023-05-20T13:12:56;99807.31;;;27.26;37.86
54592;BME280;40488;48.558;18.150;2023-05-20T13:15:25;99797.53;;;27.03;38.67
54592;BME280;40488;48.558;18.150;2023-05-20T13:17:54;99793.81;;;26.93;39.42
54592;BME280;40488;48.558;18.150;2023-05-20T13:20:23;99799.84;;;27.07;39.89
54592;BME280;40488;48.558;18.150;2023-05-20T13:22:54;99794.63;;;27.20;39.24
54592;BME280;40488;48.558;18.150;2023-05-20T13:25:23;99800.06;;;27.17;39.49
54592;BME280;40488;48.558;18.150;2023-05-20T13:27:52;99801.41;;;27.10;39.95
54592;BME280;40488;48.558;18.150;2023-05-20T13:30:24;99794.44;;;26.84;41.88
54592;BME280;40488;48.558;18.150;2023-05-20T13:32:55;99789.63;;;26.63;41.99
54592;BME280;40488;48.558;18.150;2023-05-20T13:35:23;99791.84;;;26.70;42.10
54592;BME280;40488;48.558;18.150;2023-05-20T13:37:54;99780.81;;;26.79;43.05
54592;BME280;40488;48.558;18.150;2023-05-20T13:40:23;99777.59;;;27.00;43.16
54592;BME280;40488;48.558;18.150;2023-05-20T13:42:53;99778.38;;;27.15;40.82
54592;BME280;40488;48.558;18.150;2023-05-20T13:45:21;99783.59;;;27.15;39.54
54592;BME280;40488;48.558;18.150;2023-05-20T13:47:50;99771.66;;;27.11;40.22
54592;BME280;40488;48.558;18.150;2023-05-20T13:50:19;99775.09;;;27.11;41.35
54592;BME280;40488;48.558;18.150;2023-05-20T13:52:48;99773.25;;;27.13;40.52
54592;BME280;40488;48.558;18.150;2023-05-20T13:55:19;99767.25;;;27.24;38.81
54592;BME280;40488;48.558;18.150;2023-05-20T13:57:51;99771.66;;;27.36;38.35
54592;BME280;40488;48.558;18.150;2023-05-20T14:00:20;99771.13;;;27.31;39.31
54592;BME280;40488;48.558;18.150;2023-05-20T14:02:49;99770.19;;;27.32;39.54
54592;BME280;40488;48.558;18.150;2023-05-20T14:05:19;99779.53;;;27.36;39.00
54592;BME280;40488;48.558;18.150;2023-05-20T14:07:48;99777.19;;;27.19;40.15
54592;BME280;40488;48.558;18.150;2023-05-20T14:10:16;99758.44;;;27.12;40.45
54592;BME280;40488;48.558;18.150;2023-05-20T14:12:47;99774.81;;;27.16;39.75
54592;BME280;40488;48.558;18.150;2023-05-20T14:15:16;99772.94;;;27.18;38.75
54592;BME280;40488;48.558;18.150;2023-05-20T14:17:45;99777.00;;;27.22;39.21
54592;BME280;40488;48.558;18.150;2023-05-20T14:20:14;99766.84;;;27.30;40.34
54592;BME280;40488;48.558;18.150;2023-05-20T14:22:43;99766.13;;;27.28;40.42
54592;BME280;40488;48.558;18.150;2023-05-20T14:25:11;99766.53;;;27.22;40.07